Time,TemperatureF,DewpointF,PressureIn,WindDirection,WindDirectionDegrees,WindSpeedMPH,WindSpeedGustMPH,Humidity,HourlyPrecipIn,Conditions,Clouds,dailyrainin,SolarRadiationWatts/m^2,SoftwareType,DateUTC
2013-04-08 07:55:00,54.8,53.4,30.05,North,32767,-999.0,0.0,95,0.00,,,0.00,46,Wunderground v.1.15,2013-04-08 11:55:00,
2013-04-08 08:00:00,55.0,53.6,30.05,North,32767,-999.0,0.0,95,0.00,,,0.00,46,Wunderground v.1.15,2013-04-08 12:00:00,
2013-04-08 08:05:00,55.1,53.4,30.05,North,32767,-999.0,0.0,94,0.00,,,0.00,49,Wunderground v.1.15,2013-04-08 12:05:00,
2013-04-08 08:10:00,55.1,53.4,30.05,North,32767,-999.0,0.0,94,0.00,,,0.00,49,Wunderground v.1.15,2013-04-08 12:10:00,
2013-04-08 08:15:00,55.1,53.4,30.05,North,32767,-999.0,0.0,94,0.00,,,0.00,49,Wunderground v.1.15,2013-04-08 12:15:00,
2013-04-08 08:25:00,55.1,53.1,30.06,North,32767,-999.0,0.0,93,0.00,,,0.00,49,Wunderground v.1.15,2013-04-08 12:25:00,
2013-04-08 08:30:00,55.3,53.3,30.06,North,32767,-999.0,0.0,93,0.00,,,0.00,49,Wunderground v.1.15,2013-04-08 12:30:00,
2013-04-08 08:35:00,55.6,53.6,30.06,North,32767,-999.0,0.0,93,0.00,,,0.00,53,Wunderground v.1.15,2013-04-08 12:35:00,
2013-04-08 08:45:00,56.2,54.2,30.06,North,32767,-999.0,0.0,93,0.00,,,0.00,76,Wunderground v.1.15,2013-04-08 12:45:00,
2013-04-08 08:55:00,57.0,54.4,30.06,North,32767,-999.0,0.0,91,0.00,,,0.00,104,Wunderground v.1.15,2013-04-08 12:55:00,
2013-04-08 09:00:00,57.6,55.0,30.06,North,32767,-999.0,0.0,91,0.00,,,0.00,128,Wunderground v.1.15,2013-04-08 13:00:00,
2013-04-08 09:10:00,58.9,54.7,30.06,SSW,196,0.0,0.0,86,0.00,,,0.00,144,Wunderground v.1.15,2013-04-08 13:10:00,
2013-04-08 09:15:00,58.9,54.7,30.06,WSW,244,0.0,0.0,86,0.00,,,0.00,144,Wunderground v.1.15,2013-04-08 13:15:00,
2013-04-08 09:25:00,60.9,54.7,30.05,SW,222,0.0,0.0,80,0.00,,,0.00,134,Wunderground v.1.15,2013-04-08 13:25:00,
2013-04-08 09:35:00,61.5,54.6,30.05,SW,230,0.0,0.0,78,0.00,,,0.00,153,Wunderground v.1.15,2013-04-08 13:35:00,
2013-04-08 09:45:00,63.5,55.4,30.05,West,278,1.0,1.0,75,0.00,,,0.00,153,Wunderground v.1.15,2013-04-08 13:45:00,
2013-04-08 09:55:00,64.8,54.8,30.04,WSW,243,2.0,2.0,70,0.00,,,0.00,139,Wunderground v.1.15,2013-04-08 13:55:00,
2013-04-08 10:00:00,65.3,54.9,30.04,NNW,332,2.0,2.0,69,0.00,,,0.00,139,Wunderground v.1.15,2013-04-08 14:00:00,
2013-04-08 10:10:00,66.4,55.1,30.04,WSW,258,1.0,1.0,67,0.00,,,0.00,282,Wunderground v.1.15,2013-04-08 14:10:00,
2013-04-08 10:15:00,66.4,55.1,30.04,WNW,299,1.0,1.0,67,0.00,,,0.00,282,Wunderground v.1.15,2013-04-08 14:15:00,
2013-04-08 10:25:00,68.4,54.4,30.05,West,267,1.0,1.0,61,0.00,,,0.00,282,Wunderground v.1.15,2013-04-08 14:25:00,
2013-04-08 10:35:00,68.9,54.4,30.05,WNW,285,3.0,4.0,60,0.00,,,0.00,285,Wunderground v.1.15,2013-04-08 14:35:00,
2013-04-08 10:45:00,69.8,54.4,30.05,West,280,1.0,3.0,58,0.00,,,0.00,329,Wunderground v.1.15,2013-04-08 14:45:00,
2013-04-08 10:50:00,70.1,54.2,30.04,WNW,284,0.0,0.0,57,0.00,,,0.00,505,Wunderground v.1.15,2013-04-08 14:50:00,
2013-04-08 11:00:00,71.1,55.6,30.04,West,280,1.0,1.0,58,0.00,,,0.00,445,Wunderground v.1.15,2013-04-08 15:00:00,
2013-04-08 11:10:00,72.1,55.0,30.04,West,274,1.0,1.0,55,0.00,,,0.00,445,Wunderground v.1.15,2013-04-08 15:10:00,
2013-04-08 11:20:00,72.8,54.7,30.04,South,175,0.0,0.0,53,0.00,,,0.00,445,Wunderground v.1.15,2013-04-08 15:20:00,
2013-04-08 11:30:00,74.0,55.3,30.04,SSW,192,1.0,1.0,52,0.00,,,0.00,776,Wunderground v.1.15,2013-04-08 15:30:00,
2013-04-08 11:40:00,74.2,55.4,30.04,SW,224,1.0,1.0,52,0.00,,,0.00,350,Wunderground v.1.15,2013-04-08 15:40:00,
2013-04-08 11:45:00,73.9,55.2,30.04,SW,216,2.0,2.0,52,0.00,,,0.00,322,Wunderground v.1.15,2013-04-08 15:45:00,
2013-04-08 11:50:00,73.5,55.3,30.04,SSW,212,2.0,4.0,53,0.00,,,0.00,188,Wunderground v.1.15,2013-04-08 15:50:00,
2013-04-08 12:00:00,74.0,54.2,30.04,WNW,292,3.0,3.0,50,0.00,,,0.00,644,Wunderground v.1.15,2013-04-08 16:00:00,
2013-04-08 12:10:00,75.3,54.8,30.03,SW,219,0.0,1.0,49,0.00,,,0.00,616,Wunderground v.1.15,2013-04-08 16:10:00,
2013-04-08 12:20:00,76.1,54.4,30.03,WNW,299,2.0,4.0,47,0.00,,,0.00,616,Wunderground v.1.15,2013-04-08 16:20:00,
2013-04-08 12:25:00,76.0,54.9,30.03,WNW,287,3.0,4.0,48,0.00,,,0.00,616,Wunderground v.1.15,2013-04-08 16:25:00,
2013-04-08 12:35:00,77.4,54.4,30.02,WSW,258,3.0,4.0,45,0.00,,,0.00,581,Wunderground v.1.15,2013-04-08 16:35:00,
2013-04-08 12:45:00,77.2,54.2,30.02,SSW,200,3.0,4.0,45,0.00,,,0.00,816,Wunderground v.1.15,2013-04-08 16:45:00,
2013-04-08 12:50:00,77.2,54.2,30.01,West,261,3.0,3.0,45,0.00,,,0.00,816,Wunderground v.1.15,2013-04-08 16:50:00,
2013-04-08 13:00:00,78.1,54.4,30.01,NW,323,2.0,2.0,44,0.00,,,0.00,871,Wunderground v.1.15,2013-04-08 17:00:00,
2013-04-08 13:10:00,78.5,52.8,30.00,WSW,241,3.0,3.0,41,0.00,,,0.00,857,Wunderground v.1.15,2013-04-08 17:10:00,
2013-04-08 13:20:00,78.8,53.1,29.99,WSW,248,2.0,2.0,41,0.00,,,0.00,894,Wunderground v.1.15,2013-04-08 17:20:00,
2013-04-08 13:30:00,79.0,53.9,29.99,WNW,284,1.0,2.0,42,0.00,,,0.00,903,Wunderground v.1.15,2013-04-08 17:30:00,
2013-04-08 13:35:00,79.8,51.9,29.99,WNW,289,1.0,2.0,38,0.00,,,0.00,903,Wunderground v.1.15,2013-04-08 17:35:00,
2013-04-08 13:50:00,80.1,51.5,29.98,South,174,2.0,2.0,37,0.00,,,0.00,903,Wunderground v.1.15,2013-04-08 17:50:00,
2013-04-08 13:55:00,80.3,51.7,29.98,SW,230,1.0,2.0,37,0.00,,,0.00,915,Wunderground v.1.15,2013-04-08 17:55:00,
2013-04-08 14:00:00,80.1,52.2,29.98,SSW,196,1.0,1.0,38,0.00,,,0.00,950,Wunderground v.1.15,2013-04-08 18:00:00,
2013-04-08 14:10:00,79.8,50.5,29.98,West,275,2.0,2.0,36,0.00,,,0.00,918,Wunderground v.1.15,2013-04-08 18:10:00,
2013-04-08 14:20:00,78.3,51.3,29.98,NW,315,2.0,2.0,39,0.00,,,0.00,943,Wunderground v.1.15,2013-04-08 18:20:00,
2013-04-08 14:30:00,78.5,51.5,29.98,WSW,243,1.0,4.0,39,0.00,,,0.00,130,Wunderground v.1.15,2013-04-08 18:30:00,
2013-04-08 14:40:00,79.8,51.9,29.97,WSW,243,1.0,6.0,38,0.00,,,0.00,658,Wunderground v.1.15,2013-04-08 18:40:00,
2013-04-08 14:50:00,79.8,51.9,29.96,WSW,253,1.0,1.0,38,0.00,,,0.00,104,Wunderground v.1.15,2013-04-08 18:50:00,
2013-04-08 15:00:00,79.9,51.3,29.96,SSW,210,1.0,8.0,37,0.00,,,0.00,700,Wunderground v.1.15,2013-04-08 19:00:00,
2013-04-08 15:05:00,80.3,51.7,29.96,NW,323,2.0,8.0,37,0.00,,,0.00,556,Wunderground v.1.15,2013-04-08 19:05:00,
2013-04-08 15:10:00,79.9,51.3,29.96,West,268,3.0,3.0,37,0.00,,,0.00,510,Wunderground v.1.15,2013-04-08 19:10:00,
2013-04-08 15:20:00,80.3,51.7,29.95,WNW,292,1.0,1.0,37,0.00,,,0.00,510,Wunderground v.1.15,2013-04-08 19:20:00,
2013-04-08 15:30:00,80.7,50.5,29.95,SSE,167,1.0,6.0,35,0.00,,,0.00,83,Wunderground v.1.15,2013-04-08 19:30:00,
2013-04-08 15:35:00,80.7,52.0,29.95,South,191,1.0,6.0,37,0.00,,,0.00,465,Wunderground v.1.15,2013-04-08 19:35:00,
2013-04-08 15:45:00,80.9,50.7,29.95,South,188,2.0,6.0,35,0.00,,,0.00,449,Wunderground v.1.15,2013-04-08 19:45:00,
2013-04-08 15:55:00,80.9,50.7,29.94,SW,233,2.0,6.0,35,0.00,,,0.00,241,Wunderground v.1.15,2013-04-08 19:55:00,
2013-04-08 16:00:00,81.1,50.1,29.94,WSW,240,2.0,2.0,34,0.00,,,0.00,465,Wunderground v.1.15,2013-04-08 20:00:00,
2013-04-08 16:10:00,80.7,50.5,29.93,NW,311,2.0,2.0,35,0.00,,,0.00,83,Wunderground v.1.15,2013-04-08 20:10:00,
2013-04-08 16:20:00,79.6,51.0,29.93,SW,233,0.0,2.0,37,0.00,,,0.00,326,Wunderground v.1.15,2013-04-08 20:20:00,
2013-04-08 16:30:00,80.1,51.5,29.93,SSW,212,0.0,0.0,37,0.00,,,0.00,267,Wunderground v.1.15,2013-04-08 20:30:00,
2013-04-08 16:40:00,80.3,50.1,29.93,West,272,1.0,2.0,35,0.00,,,0.00,301,Wunderground v.1.15,2013-04-08 20:40:00,
2013-04-08 16:45:00,80.3,51.7,29.93,SSE,154,1.0,2.0,37,0.00,,,0.00,438,Wunderground v.1.15,2013-04-08 20:45:00,
2013-04-08 16:50:00,80.5,51.8,29.93,WSW,258,1.0,1.0,37,0.00,,,0.00,496,Wunderground v.1.15,2013-04-08 20:50:00,
2013-04-08 16:55:00,80.5,52.6,29.93,WSW,254,1.0,4.0,38,0.00,,,0.00,135,Wunderground v.1.15,2013-04-08 20:55:00,
2013-04-08 17:05:00,80.3,50.9,29.93,NW,319,2.0,6.0,36,0.00,,,0.00,125,Wunderground v.1.15,2013-04-08 21:05:00,
2013-04-08 17:15:00,79.4,51.6,29.93,South,188,0.0,2.0,38,0.00,,,0.00,118,Wunderground v.1.15,2013-04-08 21:15:00,
2013-04-08 17:25:00,79.0,51.9,29.93,SSW,206,0.0,0.0,39,0.00,,,0.00,148,Wunderground v.1.15,2013-04-08 21:25:00,
2013-04-08 17:30:00,79.2,52.8,29.93,NNW,347,0.0,0.0,40,0.00,,,0.00,199,Wunderground v.1.15,2013-04-08 21:30:00,
2013-04-08 17:40:00,79.4,51.6,29.92,SSW,200,1.0,1.0,38,0.00,,,0.00,111,Wunderground v.1.15,2013-04-08 21:40:00,
2013-04-08 17:45:00,79.6,51.8,29.92,South,185,1.0,1.0,38,0.00,,,0.00,208,Wunderground v.1.15,2013-04-08 21:45:00,
2013-04-08 17:50:00,79.8,51.9,29.93,South,185,0.0,0.0,38,0.00,,,0.00,248,Wunderground v.1.15,2013-04-08 21:50:00,
2013-04-08 18:00:00,79.2,50.7,29.93,North,32767,-999.0,0.0,37,0.00,,,0.00,107,Wunderground v.1.15,2013-04-08 22:00:00,
2013-04-08 18:05:00,78.8,51.7,29.93,North,32767,-999.0,0.0,39,0.00,,,0.00,88,Wunderground v.1.15,2013-04-08 22:05:00,
2013-04-08 18:15:00,78.1,52.5,29.93,North,32767,-999.0,0.0,41,0.00,,,0.00,76,Wunderground v.1.15,2013-04-08 22:15:00,
2013-04-08 18:25:00,77.4,51.2,29.93,North,32767,-999.0,0.0,40,0.00,,,0.00,72,Wunderground v.1.15,2013-04-08 22:25:00,
2013-04-08 18:35:00,76.8,51.3,29.93,North,32767,-999.0,0.0,41,0.00,,,0.00,69,Wunderground v.1.15,2013-04-08 22:35:00,
2013-04-08 18:40:00,76.5,51.7,29.93,North,32767,-999.0,0.0,42,0.00,,,0.00,63,Wunderground v.1.15,2013-04-08 22:40:00,
2013-04-08 18:45:00,76.3,51.5,29.93,North,32767,-999.0,0.0,42,0.00,,,0.00,56,Wunderground v.1.15,2013-04-08 22:45:00,
2013-04-08 18:55:00,75.8,51.7,29.94,North,32767,-999.0,0.0,43,0.00,,,0.00,30,Wunderground v.1.15,2013-04-08 22:55:00,
2013-04-08 19:00:00,75.3,52.5,29.94,North,32767,-999.0,0.0,45,0.00,,,0.00,26,Wunderground v.1.15,2013-04-08 23:00:00,
2013-04-08 19:10:00,74.4,52.3,29.94,North,32767,-999.0,0.0,46,0.00,,,0.00,16,Wunderground v.1.15,2013-04-08 23:10:00,
2013-04-08 19:15:00,73.9,52.4,29.94,North,32767,-999.0,0.0,47,0.00,,,0.00,12,Wunderground v.1.15,2013-04-08 23:15:00,
2013-04-08 19:25:00,73.0,52.7,29.95,North,32767,-999.0,0.0,49,0.00,,,0.00,7,Wunderground v.1.15,2013-04-08 23:25:00,
2013-04-08 19:35:00,72.3,52.6,29.95,North,32767,-999.0,0.0,50,0.00,,,0.00,5,Wunderground v.1.15,2013-04-08 23:35:00,
2013-04-08 19:45:00,71.6,52.5,29.95,North,32767,-999.0,0.0,51,0.00,,,0.00,0,Wunderground v.1.15,2013-04-08 23:45:00,
2013-04-08 19:50:00,71.3,52.8,29.95,North,32767,-999.0,0.0,52,0.00,,,0.00,0,Wunderground v.1.15,2013-04-08 23:50:00,
2013-04-08 20:00:00,70.3,52.9,29.95,North,32767,-999.0,0.0,54,0.00,,,0.00,0,Wunderground v.1.15,2013-04-09 00:00:00,
2013-04-08 20:05:00,69.8,52.9,29.95,North,32767,-999.0,0.0,55,0.00,,,0.00,0,Wunderground v.1.15,2013-04-09 00:05:00,
2013-04-08 20:15:00,69.3,52.9,29.95,North,32767,-999.0,0.0,56,0.00,,,0.00,0,Wunderground v.1.15,2013-04-09 00:15:00,
2013-04-08 20:25:00,68.8,52.9,29.95,North,32767,-999.0,0.0,57,0.00,,,0.00,0,Wunderground v.1.15,2013-04-09 00:25:00,
2013-04-08 20:30:00,68.3,52.9,29.95,North,32767,-999.0,0.0,58,0.00,,,0.00,0,Wunderground v.1.15,2013-04-09 00:30:00,
2013-04-08 20:40:00,67.6,52.8,29.95,North,32767,-999.0,0.0,59,0.00,,,0.00,0,Wunderground v.1.15,2013-04-09 00:40:00,
2013-04-08 20:50:00,66.9,52.6,29.96,North,32767,-999.0,0.0,60,0.00,,,0.00,0,Wunderground v.1.15,2013-04-09 00:50:00,
2013-04-08 21:00:00,66.8,52.5,29.96,North,32767,-999.0,0.0,60,0.00,,,0.00,0,Wunderground v.1.15,2013-04-09 01:00:00,
2013-04-08 21:10:00,66.4,52.5,29.97,North,32767,-999.0,0.0,61,0.00,,,0.00,0,Wunderground v.1.15,2013-04-09 01:10:00,
2013-04-08 21:20:00,66.3,52.4,29.97,North,32767,-999.0,0.0,61,0.00,,,0.00,0,Wunderground v.1.15,2013-04-09 01:20:00,
2013-04-08 21:25:00,66.0,52.6,29.97,North,32767,-999.0,0.0,62,0.00,,,0.00,0,Wunderground v.1.15,2013-04-09 01:25:00,
2013-04-08 21:40:00,65.3,51.9,29.97,North,32767,-999.0,0.0,62,0.00,,,0.00,0,Wunderground v.1.15,2013-04-09 01:40:00,
2013-04-08 21:45:00,65.2,52.3,29.97,North,32767,-999.0,0.0,63,0.00,,,0.00,0,Wunderground v.1.15,2013-04-09 01:45:00,
2013-04-08 21:50:00,65.0,52.1,29.98,North,32767,-999.0,0.0,63,0.00,,,0.00,0,Wunderground v.1.15,2013-04-09 01:50:00,
2013-04-08 22:00:00,64.8,51.9,29.98,North,32767,-999.0,0.0,63,0.00,,,0.00,0,Wunderground v.1.15,2013-04-09 02:00:00,
2013-04-08 22:10:00,64.7,52.2,29.98,North,32767,-999.0,0.0,64,0.00,,,0.00,0,Wunderground v.1.15,2013-04-09 02:10:00,
2013-04-08 22:15:00,64.7,51.8,29.98,North,32767,-999.0,0.0,63,0.00,,,0.00,0,Wunderground v.1.15,2013-04-09 02:15:00,
2013-04-08 22:25:00,64.7,52.2,29.98,North,32767,-999.0,0.0,64,0.00,,,0.00,0,Wunderground v.1.15,2013-04-09 02:25:00,
2013-04-08 22:35:00,64.5,52.0,29.98,North,32767,-999.0,0.0,64,0.00,,,0.00,0,Wunderground v.1.15,2013-04-09 02:35:00,
2013-04-08 22:45:00,63.9,51.9,29.98,North,32767,-999.0,0.0,65,0.00,,,0.00,0,Wunderground v.1.15,2013-04-09 02:45:00,
2013-04-08 22:55:00,63.4,52.7,29.98,North,32767,-999.0,0.0,68,0.00,,,0.00,0,Wunderground v.1.15,2013-04-09 02:55:00,
2013-04-08 23:05:00,63.1,52.8,29.98,North,32767,-999.0,0.0,69,0.00,,,0.00,0,Wunderground v.1.15,2013-04-09 03:05:00,
2013-04-08 23:15:00,63.1,53.2,29.98,North,32767,-999.0,0.0,70,0.00,,,0.00,0,Wunderground v.1.15,2013-04-09 03:15:00,
2013-04-08 23:25:00,63.1,53.5,29.98,North,32767,-999.0,0.0,71,0.00,,,0.00,0,Wunderground v.1.15,2013-04-09 03:25:00,
2013-04-08 23:35:00,62.7,53.5,29.98,North,32767,-999.0,0.0,72,0.00,,,0.00,0,Wunderground v.1.15,2013-04-09 03:35:00,
2013-04-08 23:45:00,62.6,53.4,29.98,North,32767,-999.0,0.0,72,0.00,,,0.00,0,Wunderground v.1.15,2013-04-09 03:45:00,
2013-04-08 23:50:00,62.4,53.6,29.98,North,32767,-999.0,0.0,73,0.00,,,0.00,0,Wunderground v.1.15,2013-04-09 03:50:00,